sensor_id;sensor_type;location;lat;lon;timestamp;P1;durP1;ratioP1;P2;durP2;ratioP2
10721;SDS011;5412;59.450;18.124;2022-08-03T00:01:37;2.53;;;1.20;;
10721;SDS011;5412;59.450;18.124;2022-08-03T00:04:04;3.50;;;1.35;;
10721;SDS011;5412;59.450;18.124;2022-08-03T00:06:31;2.25;;;0.90;;
10721;SDS011;5412;59.450;18.124;2022-08-03T00:08:56;1.83;;;1.20;;
10721;SDS011;5412;59.450;18.124;2022-08-03T00:11:22;2.65;;;1.20;;
10721;SDS011;5412;59.450;18.124;2022-08-03T00:13:48;3.15;;;1.10;;
10721;SDS011;5412;59.450;18.124;2022-08-03T00:16:14;0.98;;;0.88;;
10721;SDS011;5412;59.450;18.124;2022-08-03T00:18:40;4.70;;;1.10;;
10721;SDS011;5412;59.450;18.124;2022-08-03T00:21:06;2.75;;;1.10;;
10721;SDS011;5412;59.450;18.124;2022-08-03T00:23:33;2.08;;;1.17;;
10721;SDS011;5412;59.450;18.124;2022-08-03T00:25:58;1.27;;;1.08;;
10721;SDS011;5412;59.450;18.124;2022-08-03T00:28:24;2.75;;;1.40;;
10721;SDS011;5412;59.450;18.124;2022-08-03T00:30:50;2.25;;;1.20;;
10721;SDS011;5412;59.450;18.124;2022-08-03T00:33:16;2.42;;;1.25;;
10721;SDS011;5412;59.450;18.124;2022-08-03T00:35:41;1.33;;;1.00;;
10721;SDS011;5412;59.450;18.124;2022-08-03T00:38:07;4.35;;;1.45;;
10721;SDS011;5412;59.450;18.124;2022-08-03T00:40:33;1.45;;;1.02;;
10721;SDS011;5412;59.450;18.124;2022-08-03T00:43:00;3.45;;;1.13;;
10721;SDS011;5412;59.450;18.124;2022-08-03T00:45:28;2.85;;;1.20;;
10721;SDS011;5412;59.450;18.124;2022-08-03T00:47:56;2.80;;;1.38;;
10721;SDS011;5412;59.450;18.124;2022-08-03T00:50:23;3.05;;;1.10;;
10721;SDS011;5412;59.450;18.124;2022-08-03T00:52:51;2.35;;;1.20;;
10721;SDS011;5412;59.450;18.124;2022-08-03T00:55:18;3.97;;;1.50;;
10721;SDS011;5412;59.450;18.124;2022-08-03T00:57:43;5.47;;;1.30;;
10721;SDS011;5412;59.450;18.124;2022-08-03T01:00:10;2.25;;;1.08;;
10721;SDS011;5412;59.450;18.124;2022-08-03T01:02:38;3.42;;;1.60;;
10721;SDS011;5412;59.450;18.124;2022-08-03T01:05:05;6.50;;;1.40;;
10721;SDS011;5412;59.450;18.124;2022-08-03T01:16:18;2.25;;;1.10;;
10721;SDS011;5412;59.450;18.124;2022-08-03T01:21:44;2.83;;;1.00;;
10721;SDS011;5412;59.450;18.124;2022-08-03T01:30:18;3.08;;;0.88;;
10721;SDS011;5412;59.450;18.124;2022-08-03T01:33:04;2.03;;;1.00;;
10721;SDS011;5412;59.450;18.124;2022-08-03T01:38:19;1.92;;;0.98;;
10721;SDS011;5412;59.450;18.124;2022-08-03T01:40:55;2.78;;;1.00;;
10721;SDS011;5412;59.450;18.124;2022-08-03T01:43:22;2.35;;;0.90;;
10721;SDS011;5412;59.450;18.124;2022-08-03T01:45:54;3.03;;;1.13;;
10721;SDS011;5412;59.450;18.124;2022-08-03T01:48:21;1.13;;;0.70;;
10721;SDS011;5412;59.450;18.124;2022-08-03T01:50:47;4.88;;;1.23;;
10721;SDS011;5412;59.450;18.124;2022-08-03T01:53:15;2.42;;;0.90;;
10721;SDS011;5412;59.450;18.124;2022-08-03T01:55:42;1.58;;;0.98;;
10721;SDS011;5412;59.450;18.124;2022-08-03T01:58:09;2.22;;;1.08;;
10721;SDS011;5412;59.450;18.124;2022-08-03T02:00:39;3.40;;;1.30;;
10721;SDS011;5412;59.450;18.124;2022-08-03T02:03:06;2.65;;;1.10;;
10721;SDS011;5412;59.450;18.124;2022-08-03T02:05:33;2.47;;;0.93;;
10721;SDS011;5412;59.450;18.124;2022-08-03T02:08:00;4.80;;;1.27;;
10721;SDS011;5412;59.450;18.124;2022-08-03T02:10:29;1.67;;;1.00;;
10721;SDS011;5412;59.450;18.124;2022-08-03T02:12:57;2.85;;;1.38;;
10721;SDS011;5412;59.450;18.124;2022-08-03T02:15:25;1.85;;;1.15;;
10721;SDS011;5412;59.450;18.124;2022-08-03T02:17:52;2.78;;;1.17;;
10721;SDS011;5412;59.450;18.124;2022-08-03T02:20:18;1.42;;;1.00;;
10721;SDS011;5412;59.450;18.124;2022-08-03T02:22:45;1.63;;;1.27;;
10721;SDS011;5412;59.450;18.124;2022-08-03T02:25:12;3.25;;;1.08;;
10721;SDS011;5412;59.450;18.124;2022-08-03T02:27:41;2.05;;;1.10;;
10721;SDS011;5412;59.450;18.124;2022-08-03T02:30:12;0.93;;;0.80;;
10721;SDS011;5412;59.450;18.124;2022-08-03T02:32:39;5.07;;;1.00;;
10721;SDS011;5412;59.450;18.124;2022-08-03T02:35:10;1.25;;;0.80;;
10721;SDS011;5412;59.450;18.124;2022-08-03T02:37:45;2.38;;;1.13;;
10721;SDS011;5412;59.450;18.124;2022-08-03T02:40:14;3.10;;;1.30;;
10721;SDS011;5412;59.450;18.124;2022-08-03T02:42:43;1.05;;;0.90;;
10721;SDS011;5412;59.450;18.124;2022-08-03T02:45:10;2.08;;;0.98;;
10721;SDS011;5412;59.450;18.124;2022-08-03T02:47:38;2.97;;;1.27;;
10721;SDS011;5412;59.450;18.124;2022-08-03T02:50:07;3.90;;;1.10;;
10721;SDS011;5412;59.450;18.124;2022-08-03T02:52:34;2.58;;;1.00;;
10721;SDS011;5412;59.450;18.124;2022-08-03T02:55:01;1.58;;;0.85;;
10721;SDS011;5412;59.450;18.124;2022-08-03T02:57:29;2.97;;;1.05;;
10721;SDS011;5412;59.450;18.124;2022-08-03T02:59:57;1.60;;;0.93;;
10721;SDS011;5412;59.450;18.124;2022-08-03T03:02:25;2.38;;;1.02;;
10721;SDS011;5412;59.450;18.124;2022-08-03T03:04:51;1.85;;;1.10;;
10721;SDS011;5412;59.450;18.124;2022-08-03T03:07:17;4.82;;;1.20;;
10721;SDS011;5412;59.450;18.124;2022-08-03T03:09:44;3.80;;;1.30;;
10721;SDS011;5412;59.450;18.124;2022-08-03T03:12:11;7.03;;;1.30;;
10721;SDS011;5412;59.450;18.124;2022-08-03T03:14:37;2.22;;;1.00;;
10721;SDS011;5412;59.450;18.124;2022-08-03T03:17:03;1.13;;;0.88;;
10721;SDS011;5412;59.450;18.124;2022-08-03T03:19:31;3.83;;;1.05;;
10721;SDS011;5412;59.450;18.124;2022-08-03T03:22:01;2.05;;;1.00;;
10721;SDS011;5412;59.450;18.124;2022-08-03T03:24:28;3.40;;;1.15;;
10721;SDS011;5412;59.450;18.124;2022-08-03T03:26:54;1.73;;;1.20;;
10721;SDS011;5412;59.450;18.124;2022-08-03T03:29:21;0.90;;;0.90;;
10721;SDS011;5412;59.450;18.124;2022-08-03T03:31:47;1.52;;;1.00;;
10721;SDS011;5412;59.450;18.124;2022-08-03T03:34:13;1.30;;;0.88;;
10721;SDS011;5412;59.450;18.124;2022-08-03T03:36:39;1.67;;;1.02;;
10721;SDS011;5412;59.450;18.124;2022-08-03T03:39:05;2.50;;;1.38;;
10721;SDS011;5412;59.450;18.124;2022-08-03T03:41:31;2.72;;;0.82;;
10721;SDS011;5412;59.450;18.124;2022-08-03T03:43:56;2.25;;;1.00;;
10721;SDS011;5412;59.450;18.124;2022-08-03T03:46:23;2.47;;;1.05;;
10721;SDS011;5412;59.450;18.124;2022-08-03T03:48:48;2.22;;;1.27;;
10721;SDS011;5412;59.450;18.124;2022-08-03T03:51:14;1.67;;;1.05;;
10721;SDS011;5412;59.450;18.124;2022-08-03T03:53:52;3.35;;;1.27;;
10721;SDS011;5412;59.450;18.124;2022-08-03T03:56:27;2.70;;;1.08;;
10721;SDS011;5412;59.450;18.124;2022-08-03T03:58:53;2.63;;;1.08;;
10721;SDS011;5412;59.450;18.124;2022-08-03T04:01:20;2.38;;;1.25;;
10721;SDS011;5412;59.450;18.124;2022-08-03T04:03:46;2.50;;;1.10;;
10721;SDS011;5412;59.450;18.124;2022-08-03T04:06:12;1.13;;;1.02;;
10721;SDS011;5412;59.450;18.124;2022-08-03T04:08:56;3.40;;;1.08;;
10721;SDS011;5412;59.450;18.124;2022-08-03T04:11:42;2.60;;;1.15;;
10721;SDS011;5412;59.450;18.124;2022-08-03T04:14:31;3.60;;;1.00;;
10721;SDS011;5412;59.450;18.124;2022-08-03T04:17:00;3.25;;;1.17;;
10721;SDS011;5412;59.450;18.124;2022-08-03T04:19:29;3.15;;;1.42;;
10721;SDS011;5412;59.450;18.124;2022-08-03T04:21:59;2.28;;;0.90;;
10721;SDS011;5412;59.450;18.124;2022-08-03T04:24:28;1.05;;;0.80;;
10721;SDS011;5412;59.450;18.124;2022-08-03T04:26:56;2.75;;;0.98;;
10721;SDS011;5412;59.450;18.124;2022-08-03T04:29:24;2.85;;;1.00;;
10721;SDS011;5412;59.450;18.124;2022-08-03T04:31:51;3.25;;;1.58;;
10721;SDS011;5412;59.450;18.124;2022-08-03T04:34:19;1.70;;;0.93;;
10721;SDS011;5412;59.450;18.124;2022-08-03T04:36:47;1.25;;;1.00;;
10721;SDS011;5412;59.450;18.124;2022-08-03T04:39:18;3.75;;;1.42;;
10721;SDS011;5412;59.450;18.124;2022-08-03T04:41:50;3.25;;;1.17;;
10721;SDS011;5412;59.450;18.124;2022-08-03T04:44:20;1.20;;;1.10;;
10721;SDS011;5412;59.450;18.124;2022-08-03T04:46:48;1.90;;;1.00;;
10721;SDS011;5412;59.450;18.124;2022-08-03T04:49:14;4.20;;;1.20;;
10721;SDS011;5412;59.450;18.124;2022-08-03T04:51:40;4.32;;;1.00;;
10721;SDS011;5412;59.450;18.124;2022-08-03T04:54:10;2.25;;;1.10;;
10721;SDS011;5412;59.450;18.124;2022-08-03T04:56:38;2.60;;;1.02;;
10721;SDS011;5412;59.450;18.124;2022-08-03T04:59:05;0.70;;;0.70;;
10721;SDS011;5412;59.450;18.124;2022-08-03T05:01:31;1.83;;;1.02;;
10721;SDS011;5412;59.450;18.124;2022-08-03T05:03:56;1.85;;;1.05;;
10721;SDS011;5412;59.450;18.124;2022-08-03T05:06:22;1.63;;;1.20;;
10721;SDS011;5412;59.450;18.124;2022-08-03T05:08:48;1.60;;;1.10;;
10721;SDS011;5412;59.450;18.124;2022-08-03T05:11:15;2.65;;;1.15;;
10721;SDS011;5412;59.450;18.124;2022-08-03T05:13:41;4.15;;;1.10;;
10721;SDS011;5412;59.450;18.124;2022-08-03T05:16:06;1.88;;;1.02;;
10721;SDS011;5412;59.450;18.124;2022-08-03T05:18:32;1.88;;;1.25;;
10721;SDS011;5412;59.450;18.124;2022-08-03T05:20:58;2.53;;;1.10;;
10721;SDS011;5412;59.450;18.124;2022-08-03T05:23:23;1.90;;;1.20;;
10721;SDS011;5412;59.450;18.124;2022-08-03T05:25:49;1.75;;;1.15;;
10721;SDS011;5412;59.450;18.124;2022-08-03T05:28:14;1.38;;;0.90;;
10721;SDS011;5412;59.450;18.124;2022-08-03T05:30:40;1.08;;;0.98;;
10721;SDS011;5412;59.450;18.124;2022-08-03T05:33:06;2.47;;;1.20;;
10721;SDS011;5412;59.450;18.124;2022-08-03T05:35:32;2.35;;;0.98;;
10721;SDS011;5412;59.450;18.124;2022-08-03T05:38:00;1.35;;;1.05;;
10721;SDS011;5412;59.450;18.124;2022-08-03T05:40:26;3.13;;;1.27;;
10721;SDS011;5412;59.450;18.124;2022-08-03T05:42:52;1.25;;;1.00;;
10721;SDS011;5412;59.450;18.124;2022-08-03T05:45:17;1.73;;;1.15;;
10721;SDS011;5412;59.450;18.124;2022-08-03T05:47:44;5.05;;;1.40;;
10721;SDS011;5412;59.450;18.124;2022-08-03T05:50:10;1.83;;;1.02;;
10721;SDS011;5412;59.450;18.124;2022-08-03T05:52:36;2.15;;;1.05;;
10721;SDS011;5412;59.450;18.124;2022-08-03T05:55:03;2.88;;;1.17;;
10721;SDS011;5412;59.450;18.124;2022-08-03T05:57:31;2.05;;;1.02;;
10721;SDS011;5412;59.450;18.124;2022-08-03T05:59:56;1.20;;;1.02;;
10721;SDS011;5412;59.450;18.124;2022-08-03T06:02:22;2.47;;;1.20;;
10721;SDS011;5412;59.450;18.124;2022-08-03T06:04:47;3.95;;;1.10;;
10721;SDS011;5412;59.450;18.124;2022-08-03T06:07:13;3.72;;;1.05;;
10721;SDS011;5412;59.450;18.124;2022-08-03T06:09:39;2.50;;;1.13;;
10721;SDS011;5412;59.450;18.124;2022-08-03T06:12:05;2.90;;;1.10;;
10721;SDS011;5412;59.450;18.124;2022-08-03T06:14:31;1.58;;;1.20;;
10721;SDS011;5412;59.450;18.124;2022-08-03T06:16:57;2.15;;;1.17;;
10721;SDS011;5412;59.450;18.124;2022-08-03T06:19:23;3.33;;;0.98;;
10721;SDS011;5412;59.450;18.124;2022-08-03T06:21:49;2.95;;;1.20;;
10721;SDS011;5412;59.450;18.124;2022-08-03T06:24:15;1.65;;;1.10;;
10721;SDS011;5412;59.450;18.124;2022-08-03T06:26:40;1.20;;;1.10;;
10721;SDS011;5412;59.450;18.124;2022-08-03T06:29:06;1.75;;;1.02;;
10721;SDS011;5412;59.450;18.124;2022-08-03T06:31:32;1.10;;;1.00;;
10721;SDS011;5412;59.450;18.124;2022-08-03T06:33:57;1.33;;;1.20;;
10721;SDS011;5412;59.450;18.124;2022-08-03T06:36:23;2.92;;;1.10;;
10721;SDS011;5412;59.450;18.124;2022-08-03T06:38:49;1.77;;;1.00;;
10721;SDS011;5412;59.450;18.124;2022-08-03T06:41:15;0.98;;;0.80;;
10721;SDS011;5412;59.450;18.124;2022-08-03T06:43:40;1.83;;;1.20;;
10721;SDS011;5412;59.450;18.124;2022-08-03T06:46:06;3.30;;;1.30;;
10721;SDS011;5412;59.450;18.124;2022-08-03T06:48:32;1.52;;;0.88;;
10721;SDS011;5412;59.450;18.124;2022-08-03T06:50:58;2.55;;;1.15;;
10721;SDS011;5412;59.450;18.124;2022-08-03T06:53:23;1.70;;;1.10;;
10721;SDS011;5412;59.450;18.124;2022-08-03T06:55:49;2.65;;;1.30;;
10721;SDS011;5412;59.450;18.124;2022-08-03T06:58:15;1.20;;;1.10;;
10721;SDS011;5412;59.450;18.124;2022-08-03T07:00:40;2.80;;;1.17;;
10721;SDS011;5412;59.450;18.124;2022-08-03T07:03:06;1.25;;;1.15;;
10721;SDS011;5412;59.450;18.124;2022-08-03T07:05:31;2.55;;;1.30;;
10721;SDS011;5412;59.450;18.124;2022-08-03T07:07:59;1.58;;;1.15;;
10721;SDS011;5412;59.450;18.124;2022-08-03T07:10:26;1.45;;;1.15;;
10721;SDS011;5412;59.450;18.124;2022-08-03T07:12:51;1.73;;;1.30;;
10721;SDS011;5412;59.450;18.124;2022-08-03T07:15:18;1.42;;;1.20;;
10721;SDS011;5412;59.450;18.124;2022-08-03T07:17:43;2.70;;;1.40;;
10721;SDS011;5412;59.450;18.124;2022-08-03T07:20:09;1.38;;;1.20;;
10721;SDS011;5412;59.450;18.124;2022-08-03T07:22:37;1.70;;;1.50;;
10721;SDS011;5412;59.450;18.124;2022-08-03T07:25:02;1.40;;;1.20;;
10721;SDS011;5412;59.450;18.124;2022-08-03T07:27:29;2.92;;;1.20;;
10721;SDS011;5412;59.450;18.124;2022-08-03T07:29:55;1.67;;;1.20;;
10721;SDS011;5412;59.450;18.124;2022-08-03T07:32:22;2.38;;;1.27;;
10721;SDS011;5412;59.450;18.124;2022-08-03T07:34:48;2.80;;;1.10;;
10721;SDS011;5412;59.450;18.124;2022-08-03T07:37:14;2.40;;;1.10;;
10721;SDS011;5412;59.450;18.124;2022-08-03T07:39:39;2.00;;;1.17;;
10721;SDS011;5412;59.450;18.124;2022-08-03T07:42:05;1.83;;;1.20;;
10721;SDS011;5412;59.450;18.124;2022-08-03T07:44:31;1.45;;;1.13;;
10721;SDS011;5412;59.450;18.124;2022-08-03T07:46:56;1.10;;;1.02;;
10721;SDS011;5412;59.450;18.124;2022-08-03T07:49:22;2.17;;;1.30;;
10721;SDS011;5412;59.450;18.124;2022-08-03T07:51:47;2.30;;;1.23;;
10721;SDS011;5412;59.450;18.124;2022-08-03T07:54:33;2.05;;;1.15;;
10721;SDS011;5412;59.450;18.124;2022-08-03T07:56:59;2.00;;;1.30;;
10721;SDS011;5412;59.450;18.124;2022-08-03T07:59:24;1.58;;;1.23;;
10721;SDS011;5412;59.450;18.124;2022-08-03T08:01:50;1.70;;;1.23;;
10721;SDS011;5412;59.450;18.124;2022-08-03T08:04:17;1.63;;;1.30;;
10721;SDS011;5412;59.450;18.124;2022-08-03T08:06:43;3.00;;;1.38;;
10721;SDS011;5412;59.450;18.124;2022-08-03T08:09:08;1.10;;;1.00;;
10721;SDS011;5412;59.450;18.124;2022-08-03T08:11:35;1.70;;;1.30;;
10721;SDS011;5412;59.450;18.124;2022-08-03T08:14:01;1.92;;;1.40;;
10721;SDS011;5412;59.450;18.124;2022-08-03T08:16:28;1.92;;;1.20;;
10721;SDS011;5412;59.450;18.124;2022-08-03T08:18:53;6.55;;;1.48;;
10721;SDS011;5412;59.450;18.124;2022-08-03T08:21:19;1.17;;;1.02;;
10721;SDS011;5412;59.450;18.124;2022-08-03T08:23:44;1.92;;;1.10;;
10721;SDS011;5412;59.450;18.124;2022-08-03T08:26:10;1.48;;;1.10;;
10721;SDS011;5412;59.450;18.124;2022-08-03T08:28:36;2.00;;;1.45;;
10721;SDS011;5412;59.450;18.124;2022-08-03T08:31:02;2.10;;;1.10;;
10721;SDS011;5412;59.450;18.124;2022-08-03T08:33:28;2.45;;;1.30;;
10721;SDS011;5412;59.450;18.124;2022-08-03T08:35:54;3.38;;;1.25;;
10721;SDS011;5412;59.450;18.124;2022-08-03T08:38:20;1.55;;;1.23;;
10721;SDS011;5412;59.450;18.124;2022-08-03T08:40:46;3.15;;;1.35;;
10721;SDS011;5412;59.450;18.124;2022-08-03T08:43:13;2.85;;;1.20;;
10721;SDS011;5412;59.450;18.124;2022-08-03T08:45:39;1.35;;;1.20;;
10721;SDS011;5412;59.450;18.124;2022-08-03T08:48:05;1.10;;;1.10;;
10721;SDS011;5412;59.450;18.124;2022-08-03T08:50:33;3.00;;;1.30;;
10721;SDS011;5412;59.450;18.124;2022-08-03T08:53:01;4.13;;;1.23;;
10721;SDS011;5412;59.450;18.124;2022-08-03T08:55:27;3.08;;;1.23;;
10721;SDS011;5412;59.450;18.124;2022-08-03T08:57:56;1.90;;;1.15;;
10721;SDS011;5412;59.450;18.124;2022-08-03T09:00:25;1.63;;;1.38;;
10721;SDS011;5412;59.450;18.124;2022-08-03T09:02:51;5.13;;;1.08;;
10721;SDS011;5412;59.450;18.124;2022-08-03T09:05:17;5.43;;;1.23;;
10721;SDS011;5412;59.450;18.124;2022-08-03T09:07:45;2.42;;;1.20;;
10721;SDS011;5412;59.450;18.124;2022-08-03T09:10:12;3.42;;;1.23;;
10721;SDS011;5412;59.450;18.124;2022-08-03T09:12:44;2.40;;;1.10;;
10721;SDS011;5412;59.450;18.124;2022-08-03T09:17:50;3.05;;;1.35;;
10721;SDS011;5412;59.450;18.124;2022-08-03T09:20:17;1.67;;;1.02;;
10721;SDS011;5412;59.450;18.124;2022-08-03T09:22:54;4.38;;;1.05;;
10721;SDS011;5412;59.450;18.124;2022-08-03T09:25:34;2.05;;;1.15;;
10721;SDS011;5412;59.450;18.124;2022-08-03T09:28:11;2.03;;;1.10;;
10721;SDS011;5412;59.450;18.124;2022-08-03T09:30:42;1.48;;;1.10;;
10721;SDS011;5412;59.450;18.124;2022-08-03T09:33:22;5.32;;;1.10;;
10721;SDS011;5412;59.450;18.124;2022-08-03T09:35:48;1.20;;;1.00;;
10721;SDS011;5412;59.450;18.124;2022-08-03T09:38:15;1.73;;;1.17;;
10721;SDS011;5412;59.450;18.124;2022-08-03T09:40:43;1.33;;;1.15;;
10721;SDS011;5412;59.450;18.124;2022-08-03T09:43:10;1.15;;;1.05;;
10721;SDS011;5412;59.450;18.124;2022-08-03T09:45:36;1.23;;;0.93;;
10721;SDS011;5412;59.450;18.124;2022-08-03T09:50:51;1.15;;;0.90;;
10721;SDS011;5412;59.450;18.124;2022-08-03T09:53:19;1.15;;;0.95;;
10721;SDS011;5412;59.450;18.124;2022-08-03T09:55:52;1.75;;;1.20;;
10721;SDS011;5412;59.450;18.124;2022-08-03T09:58:19;1.90;;;1.20;;
10721;SDS011;5412;59.450;18.124;2022-08-03T10:00:52;1.25;;;1.00;;
10721;SDS011;5412;59.450;18.124;2022-08-03T10:03:34;1.05;;;0.93;;
10721;SDS011;5412;59.450;18.124;2022-08-03T10:06:14;1.77;;;0.90;;
10721;SDS011;5412;59.450;18.124;2022-08-03T10:08:43;0.85;;;0.85;;
10721;SDS011;5412;59.450;18.124;2022-08-03T10:11:09;2.90;;;0.90;;
10721;SDS011;5412;59.450;18.124;2022-08-03T10:13:34;2.72;;;0.90;;
10721;SDS011;5412;59.450;18.124;2022-08-03T10:16:00;1.95;;;0.93;;
10721;SDS011;5412;59.450;18.124;2022-08-03T10:18:28;3.05;;;0.90;;
10721;SDS011;5412;59.450;18.124;2022-08-03T10:20:58;1.20;;;1.00;;
10721;SDS011;5412;59.450;18.124;2022-08-03T10:23:33;5.85;;;1.13;;
10721;SDS011;5412;59.450;18.124;2022-08-03T10:26:01;1.30;;;1.02;;
10721;SDS011;5412;59.450;18.124;2022-08-03T10:28:31;1.38;;;1.00;;
10721;SDS011;5412;59.450;18.124;2022-08-03T10:31:00;0.90;;;0.90;;
10721;SDS011;5412;59.450;18.124;2022-08-03T10:33:30;1.65;;;1.10;;
10721;SDS011;5412;59.450;18.124;2022-08-03T10:35:58;1.75;;;1.27;;
10721;SDS011;5412;59.450;18.124;2022-08-03T10:38:29;1.00;;;0.90;;
10721;SDS011;5412;59.450;18.124;2022-08-03T10:41:01;1.52;;;0.90;;
10721;SDS011;5412;59.450;18.124;2022-08-03T10:43:32;1.90;;;0.90;;
10721;SDS011;5412;59.450;18.124;2022-08-03T10:46:06;1.45;;;1.02;;
10721;SDS011;5412;59.450;18.124;2022-08-03T10:48:32;2.67;;;1.13;;
10721;SDS011;5412;59.450;18.124;2022-08-03T10:50:59;3.42;;;1.10;;
10721;SDS011;5412;59.450;18.124;2022-08-03T10:56:06;1.13;;;0.93;;
10721;SDS011;5412;59.450;18.124;2022-08-03T10:59:16;3.90;;;1.00;;
10721;SDS011;5412;59.450;18.124;2022-08-03T11:02:00;1.25;;;1.00;;
10721;SDS011;5412;59.450;18.124;2022-08-03T11:04:26;1.20;;;1.00;;
10721;SDS011;5412;59.450;18.124;2022-08-03T11:09:47;1.40;;;0.85;;
10721;SDS011;5412;59.450;18.124;2022-08-03T11:12:26;2.90;;;1.20;;
10721;SDS011;5412;59.450;18.124;2022-08-03T11:14:53;1.02;;;0.90;;
10721;SDS011;5412;59.450;18.124;2022-08-03T11:17:20;1.33;;;0.98;;
10721;SDS011;5412;59.450;18.124;2022-08-03T11:19:47;0.88;;;0.68;;
10721;SDS011;5412;59.450;18.124;2022-08-03T11:22:15;0.93;;;0.73;;
10721;SDS011;5412;59.450;18.124;2022-08-03T11:43:50;1.50;;;1.08;;
10721;SDS011;5412;59.450;18.124;2022-08-03T11:45:57;1.58;;;1.00;;
10721;SDS011;5412;59.450;18.124;2022-08-03T11:48:40;2.35;;;1.10;;
10721;SDS011;5412;59.450;18.124;2022-08-03T11:51:17;1.88;;;0.90;;
10721;SDS011;5412;59.450;18.124;2022-08-03T11:53:43;5.85;;;1.05;;
10721;SDS011;5412;59.450;18.124;2022-08-03T11:56:11;1.13;;;1.13;;
10721;SDS011;5412;59.450;18.124;2022-08-03T11:58:37;3.92;;;1.00;;
10721;SDS011;5412;59.450;18.124;2022-08-03T12:01:11;1.48;;;1.15;;
10721;SDS011;5412;59.450;18.124;2022-08-03T12:03:37;1.17;;;1.08;;
10721;SDS011;5412;59.450;18.124;2022-08-03T12:06:03;3.65;;;1.20;;
10721;SDS011;5412;59.450;18.124;2022-08-03T12:08:36;1.42;;;0.93;;
10721;SDS011;5412;59.450;18.124;2022-08-03T12:11:03;3.45;;;1.40;;
10721;SDS011;5412;59.450;18.124;2022-08-03T12:13:37;2.78;;;1.42;;
10721;SDS011;5412;59.450;18.124;2022-08-03T12:16:05;3.42;;;1.50;;
10721;SDS011;5412;59.450;18.124;2022-08-03T12:18:31;2.72;;;1.25;;
10721;SDS011;5412;59.450;18.124;2022-08-03T12:21:09;1.52;;;1.23;;
10721;SDS011;5412;59.450;18.124;2022-08-03T12:23:36;1.52;;;1.10;;
10721;SDS011;5412;59.450;18.124;2022-08-03T12:26:04;2.40;;;1.30;;
10721;SDS011;5412;59.450;18.124;2022-08-03T12:28:33;3.47;;;1.10;;
10721;SDS011;5412;59.450;18.124;2022-08-03T12:31:03;1.77;;;1.27;;
10721;SDS011;5412;59.450;18.124;2022-08-03T12:33:32;2.50;;;1.33;;
10721;SDS011;5412;59.450;18.124;2022-08-03T12:36:26;1.55;;;1.02;;
10721;SDS011;5412;59.450;18.124;2022-08-03T12:38:54;1.30;;;1.10;;
10721;SDS011;5412;59.450;18.124;2022-08-03T12:41:31;1.10;;;1.00;;
10721;SDS011;5412;59.450;18.124;2022-08-03T12:43:59;1.50;;;1.20;;
10721;SDS011;5412;59.450;18.124;2022-08-03T12:46:31;2.53;;;1.05;;
10721;SDS011;5412;59.450;18.124;2022-08-03T12:49:13;1.45;;;1.10;;
10721;SDS011;5412;59.450;18.124;2022-08-03T12:54:07;6.80;;;1.40;;
10721;SDS011;5412;59.450;18.124;2022-08-03T12:56:33;1.92;;;1.40;;
10721;SDS011;5412;59.450;18.124;2022-08-03T12:59:00;1.83;;;1.13;;
10721;SDS011;5412;59.450;18.124;2022-08-03T13:01:45;1.50;;;1.20;;
10721;SDS011;5412;59.450;18.124;2022-08-03T13:04:11;5.38;;;1.10;;
10721;SDS011;5412;59.450;18.124;2022-08-03T13:06:37;1.27;;;1.13;;
10721;SDS011;5412;59.450;18.124;2022-08-03T13:09:04;1.45;;;1.33;;
10721;SDS011;5412;59.450;18.124;2022-08-03T13:11:31;3.08;;;1.50;;
10721;SDS011;5412;59.450;18.124;2022-08-03T13:13:57;1.38;;;1.00;;
10721;SDS011;5412;59.450;18.124;2022-08-03T13:16:23;1.52;;;1.20;;
10721;SDS011;5412;59.450;18.124;2022-08-03T13:18:49;1.88;;;1.30;;
10721;SDS011;5412;59.450;18.124;2022-08-03T13:21:16;1.23;;;1.13;;
10721;SDS011;5412;59.450;18.124;2022-08-03T13:23:43;3.00;;;1.42;;
10721;SDS011;5412;59.450;18.124;2022-08-03T13:26:09;3.25;;;1.50;;
10721;SDS011;5412;59.450;18.124;2022-08-03T13:28:35;5.60;;;1.60;;
10721;SDS011;5412;59.450;18.124;2022-08-03T13:31:02;2.28;;;1.33;;
10721;SDS011;5412;59.450;18.124;2022-08-03T13:33:28;1.38;;;1.20;;
10721;SDS011;5412;59.450;18.124;2022-08-03T13:35:54;1.52;;;1.35;;
10721;SDS011;5412;59.450;18.124;2022-08-03T13:38:19;2.03;;;1.20;;
10721;SDS011;5412;59.450;18.124;2022-08-03T13:40:45;1.58;;;1.30;;
10721;SDS011;5412;59.450;18.124;2022-08-03T13:43:11;2.25;;;1.23;;
10721;SDS011;5412;59.450;18.124;2022-08-03T13:45:37;2.88;;;1.75;;
10721;SDS011;5412;59.450;18.124;2022-08-03T13:48:03;1.35;;;1.20;;
10721;SDS011;5412;59.450;18.124;2022-08-03T13:50:28;1.50;;;1.33;;
10721;SDS011;5412;59.450;18.124;2022-08-03T13:52:55;1.27;;;1.10;;
10721;SDS011;5412;59.450;18.124;2022-08-03T13:55:21;1.15;;;1.05;;
10721;SDS011;5412;59.450;18.124;2022-08-03T13:57:46;2.92;;;1.45;;
10721;SDS011;5412;59.450;18.124;2022-08-03T14:00:12;3.90;;;1.40;;
10721;SDS011;5412;59.450;18.124;2022-08-03T14:02:39;1.20;;;1.17;;
10721;SDS011;5412;59.450;18.124;2022-08-03T14:05:05;1.23;;;1.13;;
10721;SDS011;5412;59.450;18.124;2022-08-03T14:07:32;2.35;;;1.33;;
10721;SDS011;5412;59.450;18.124;2022-08-03T14:09:57;1.75;;;1.40;;
10721;SDS011;5412;59.450;18.124;2022-08-03T14:12:23;1.25;;;1.20;;
10721;SDS011;5412;59.450;18.124;2022-08-03T14:14:49;1.92;;;1.35;;
10721;SDS011;5412;59.450;18.124;2022-08-03T14:17:14;3.97;;;1.40;;
10721;SDS011;5412;59.450;18.124;2022-08-03T14:19:40;2.53;;;1.50;;
10721;SDS011;5412;59.450;18.124;2022-08-03T14:22:06;2.15;;;1.48;;
10721;SDS011;5412;59.450;18.124;2022-08-03T14:24:31;4.28;;;1.63;;
10721;SDS011;5412;59.450;18.124;2022-08-03T14:26:57;3.55;;;1.75;;
10721;SDS011;5412;59.450;18.124;2022-08-03T14:29:22;3.78;;;1.50;;
10721;SDS011;5412;59.450;18.124;2022-08-03T14:31:48;3.28;;;1.35;;
10721;SDS011;5412;59.450;18.124;2022-08-03T14:34:13;4.75;;;1.60;;
10721;SDS011;5412;59.450;18.124;2022-08-03T14:36:39;1.67;;;1.23;;
10721;SDS011;5412;59.450;18.124;2022-08-03T14:39:06;5.53;;;1.55;;
10721;SDS011;5412;59.450;18.124;2022-08-03T14:41:31;1.73;;;1.48;;
10721;SDS011;5412;59.450;18.124;2022-08-03T14:43:57;2.20;;;1.45;;
10721;SDS011;5412;59.450;18.124;2022-08-03T14:46:22;2.15;;;1.40;;
10721;SDS011;5412;59.450;18.124;2022-08-03T14:48:48;2.08;;;1.58;;
10721;SDS011;5412;59.450;18.124;2022-08-03T14:51:14;2.70;;;1.60;;
10721;SDS011;5412;59.450;18.124;2022-08-03T14:53:39;2.38;;;1.80;;
10721;SDS011;5412;59.450;18.124;2022-08-03T14:56:05;2.50;;;1.70;;
10721;SDS011;5412;59.450;18.124;2022-08-03T14:58:31;6.32;;;1.80;;
10721;SDS011;5412;59.450;18.124;2022-08-03T15:00:57;2.30;;;1.70;;
10721;SDS011;5412;59.450;18.124;2022-08-03T15:03:23;1.77;;;1.58;;
10721;SDS011;5412;59.450;18.124;2022-08-03T15:05:49;4.60;;;1.58;;
10721;SDS011;5412;59.450;18.124;2022-08-03T15:08:20;1.65;;;1.55;;
10721;SDS011;5412;59.450;18.124;2022-08-03T15:10:47;2.05;;;1.85;;
10721;SDS011;5412;59.450;18.124;2022-08-03T15:13:13;2.05;;;1.50;;
10721;SDS011;5412;59.450;18.124;2022-08-03T15:15:40;4.72;;;1.77;;
10721;SDS011;5412;59.450;18.124;2022-08-03T15:18:05;1.90;;;1.38;;
10721;SDS011;5412;59.450;18.124;2022-08-03T15:20:31;2.10;;;1.95;;
10721;SDS011;5412;59.450;18.124;2022-08-03T15:22:57;4.15;;;1.60;;
10721;SDS011;5412;59.450;18.124;2022-08-03T15:25:23;2.65;;;1.65;;
10721;SDS011;5412;59.450;18.124;2022-08-03T15:27:48;3.00;;;2.08;;
10721;SDS011;5412;59.450;18.124;2022-08-03T15:30:14;3.20;;;2.30;;
10721;SDS011;5412;59.450;18.124;2022-08-03T15:32:40;3.35;;;1.90;;
10721;SDS011;5412;59.450;18.124;2022-08-03T15:35:05;8.57;;;2.00;;
10721;SDS011;5412;59.450;18.124;2022-08-03T15:37:31;4.53;;;1.95;;
10721;SDS011;5412;59.450;18.124;2022-08-03T15:39:57;2.65;;;2.08;;
10721;SDS011;5412;59.450;18.124;2022-08-03T15:42:22;2.20;;;1.95;;
10721;SDS011;5412;59.450;18.124;2022-08-03T15:44:48;8.52;;;2.45;;